createdAt,value
2018-03-25T00:02:10.625Z,-3.20
2018-03-25T00:04:36.765Z,-3.20
2018-03-25T00:07:03.021Z,-3.20
2018-03-25T00:09:29.449Z,-3.20
2018-03-25T00:11:55.964Z,-3.30
2018-03-25T00:14:22.260Z,-3.30
2018-03-25T00:16:48.472Z,-3.30
2018-03-25T00:19:15.529Z,-3.20
2018-03-25T00:21:41.746Z,-3.30
2018-03-25T00:24:08.782Z,-3.30
2018-03-25T00:26:35.716Z,-3.30
2018-03-25T00:29:02.075Z,-3.30
2018-03-25T00:31:28.451Z,-3.30
2018-03-25T00:33:54.759Z,-3.30
2018-03-25T00:36:21.045Z,-3.40
2018-03-25T00:38:48.077Z,-3.40
2018-03-25T00:41:15.996Z,-3.50
2018-03-25T00:43:42.368Z,-3.50
2018-03-25T00:46:09.398Z,-3.50
2018-03-25T00:48:35.578Z,-3.50
2018-03-25T00:51:01.802Z,-3.50
2018-03-25T00:53:28.277Z,-3.50
2018-03-25T00:55:54.671Z,-3.50
2018-03-25T00:58:21.055Z,-3.50
2018-03-25T01:00:47.475Z,-3.50
2018-03-25T01:03:13.881Z,-3.50
2018-03-25T01:05:40.164Z,-3.60
2018-03-25T01:08:06.450Z,-3.60
2018-03-25T01:10:32.756Z,-3.60
2018-03-25T01:12:58.963Z,-3.70
2018-03-25T01:15:25.196Z,-3.70
2018-03-25T01:17:51.443Z,-3.70
2018-03-25T01:20:17.679Z,-3.70
2018-03-25T01:22:43.908Z,-3.70
2018-03-25T01:25:10.095Z,-3.80
2018-03-25T01:27:38.580Z,-3.70
2018-03-25T01:30:04.735Z,-3.80
2018-03-25T01:32:31.185Z,-3.70
2018-03-25T01:34:58.363Z,-3.80
2018-03-25T01:37:25.373Z,-3.80
2018-03-25T01:39:51.635Z,-3.80
2018-03-25T01:42:25.077Z,-3.70
2018-03-25T01:44:51.470Z,-3.70
2018-03-25T01:47:18.349Z,-3.80
2018-03-25T01:49:44.560Z,-3.80
2018-03-25T01:52:11.505Z,-3.80
2018-03-25T01:54:37.724Z,-3.80
2018-03-25T01:57:04.633Z,-3.90
2018-03-25T01:59:30.800Z,-3.90
2018-03-25T02:01:57.007Z,-3.90
2018-03-25T02:04:23.947Z,-3.80
2018-03-25T02:06:50.875Z,-3.80
2018-03-25T02:09:17.970Z,-3.90
2018-03-25T02:11:44.277Z,-3.90
2018-03-25T02:14:10.462Z,-3.90
2018-03-25T02:16:36.680Z,-3.90
2018-03-25T02:19:02.910Z,-3.90
2018-03-25T02:21:29.302Z,-3.90
2018-03-25T02:26:50.568Z,-4.00
2018-03-25T02:29:16.806Z,-4.00
2018-03-25T02:31:42.965Z,-4.00
2018-03-25T02:34:09.535Z,-4.00
2018-03-25T02:36:35.962Z,-4.00
2018-03-25T02:39:02.884Z,-4.00
2018-03-25T02:41:29.093Z,-4.00
2018-03-25T02:43:56.033Z,-4.10
2018-03-25T02:46:23.095Z,-4.10
2018-03-25T02:48:49.317Z,-4.10
2018-03-25T02:51:15.639Z,-4.10
2018-03-25T02:53:41.827Z,-4.10
2018-03-25T02:56:08.016Z,-4.10
2018-03-25T02:58:34.483Z,-4.10
2018-03-25T03:01:00.811Z,-4.20
2018-03-25T03:03:27.108Z,-4.20
2018-03-25T03:05:53.326Z,-4.20
2018-03-25T03:08:19.548Z,-4.20
2018-03-25T03:10:45.876Z,-4.20
2018-03-25T03:13:12.163Z,-4.30
2018-03-25T03:15:39.124Z,-4.30
2018-03-25T03:18:06.061Z,-4.30
2018-03-25T03:20:39.350Z,-4.30
2018-03-25T03:23:05.656Z,-4.30
2018-03-25T03:25:31.827Z,-4.30
2018-03-25T03:27:58.826Z,-4.30
2018-03-25T03:30:25.027Z,-4.40
2018-03-25T03:32:51.515Z,-4.40
2018-03-25T03:35:18.629Z,-4.40
2018-03-25T03:37:44.940Z,-4.40
2018-03-25T03:40:11.217Z,-4.40
2018-03-25T03:42:37.355Z,-4.40
2018-03-25T03:45:04.288Z,-4.50
2018-03-25T03:47:31.462Z,-4.50
2018-03-25T03:49:57.671Z,-4.50
2018-03-25T03:52:24.569Z,-4.60
2018-03-25T03:54:50.777Z,-4.60
2018-03-25T03:57:17.025Z,-4.60
2018-03-25T03:59:43.361Z,-4.60
2018-03-25T04:02:09.692Z,-4.60
2018-03-25T04:04:35.944Z,-4.60
2018-03-25T04:07:03.060Z,-4.50
2018-03-25T04:09:29.267Z,-4.60
2018-03-25T04:11:55.578Z,-4.60
2018-03-25T04:14:21.959Z,-4.60
2018-03-25T04:16:49.666Z,-4.60
2018-03-25T04:19:15.860Z,-4.60
2018-03-25T04:21:42.782Z,-4.50
2018-03-25T04:24:09.442Z,-4.50
2018-03-25T04:26:35.711Z,-4.50
2018-03-25T04:29:02.618Z,-4.60
2018-03-25T04:31:29.520Z,-4.60
2018-03-25T04:33:55.758Z,-4.60
2018-03-25T04:36:21.897Z,-4.70
2018-03-25T04:38:49.645Z,-4.70
2018-03-25T04:41:16.071Z,-4.70
2018-03-25T04:43:42.510Z,-4.70
2018-03-25T04:46:08.811Z,-4.80
2018-03-25T04:48:34.992Z,-4.80
2018-03-25T04:51:01.974Z,-4.80
2018-03-25T04:53:28.210Z,-4.80
2018-03-25T04:55:54.557Z,-4.80
2018-03-25T04:58:20.715Z,-4.80
2018-03-25T05:00:46.964Z,-4.80
2018-03-25T05:03:13.196Z,-4.80
2018-03-25T05:05:39.394Z,-4.80
2018-03-25T05:08:06.606Z,-4.80
2018-03-25T05:10:32.814Z,-4.80
2018-03-25T05:12:59.160Z,-4.80
2018-03-25T05:15:25.336Z,-4.80
2018-03-25T05:17:51.558Z,-4.80
2018-03-25T05:20:18.531Z,-4.80
2018-03-25T05:22:44.728Z,-4.90
2018-03-25T05:25:10.947Z,-4.80
2018-03-25T05:27:37.883Z,-4.80
2018-03-25T05:30:04.866Z,-4.80
2018-03-25T05:32:31.044Z,-4.80
2018-03-25T05:34:58.135Z,-4.60
2018-03-25T05:37:24.358Z,-4.60
2018-03-25T05:39:50.728Z,-4.50
2018-03-25T05:42:17.065Z,-4.50
2018-03-25T05:44:43.356Z,-4.30
2018-03-25T05:47:09.738Z,-4.30
2018-03-25T05:49:36.634Z,-4.20
2018-03-25T05:52:02.920Z,-4.20
2018-03-25T05:54:29.849Z,-4.10
2018-03-25T05:56:57.641Z,-4.00
2018-03-25T05:59:24.027Z,-4.00
2018-03-25T06:01:50.329Z,-4.00
2018-03-25T06:04:16.543Z,-3.90
2018-03-25T06:06:42.708Z,-3.80
2018-03-25T06:09:08.961Z,-3.80
2018-03-25T06:11:35.908Z,-3.60
2018-03-25T06:14:03.030Z,-3.50
2018-03-25T06:16:29.301Z,-3.50
2018-03-25T06:18:55.551Z,-3.40
2018-03-25T06:21:21.790Z,-3.30
2018-03-25T06:23:48.036Z,-3.20
2018-03-25T06:26:14.296Z,-3.10
2018-03-25T06:28:41.285Z,-2.90
2018-03-25T06:31:07.560Z,-2.90
2018-03-25T06:33:34.552Z,-2.60
2018-03-25T06:36:00.774Z,-2.70
2018-03-25T06:38:27.053Z,-2.60
2018-03-25T06:40:53.461Z,-2.40
2018-03-25T06:43:19.696Z,-2.20
2018-03-25T06:45:46.625Z,-1.50
2018-03-25T06:48:12.830Z,-1.50
2018-03-25T06:50:39.118Z,-1.20
2018-03-25T06:53:06.096Z,-0.50
2018-03-25T06:55:32.332Z,-0.50
2018-03-25T06:57:58.607Z,-0.10
2018-03-25T07:00:25.565Z,0.40
2018-03-25T07:02:52.666Z,0.60
2018-03-25T07:05:18.920Z,0.50
2018-03-25T07:07:45.140Z,0.80
2018-03-25T07:10:11.482Z,1.00
2018-03-25T07:12:38.432Z,1.60
2018-03-25T07:15:05.760Z,1.80
2018-03-25T07:17:31.961Z,1.80
2018-03-25T07:19:58.154Z,2.10
2018-03-25T07:22:24.406Z,2.20
2018-03-25T07:24:50.592Z,2.40
2018-03-25T07:27:17.562Z,2.50
2018-03-25T07:29:43.768Z,2.50
2018-03-25T07:32:10.104Z,2.70
2018-03-25T07:34:36.335Z,2.80
2018-03-25T07:37:02.660Z,2.90
2018-03-25T07:39:28.889Z,2.80
2018-03-25T07:41:55.192Z,2.80
2018-03-25T07:44:22.224Z,2.90
2018-03-25T07:46:48.434Z,2.90
2018-03-25T07:49:14.699Z,3.00
2018-03-25T07:51:41.853Z,3.30
2018-03-25T07:54:09.059Z,3.40
2018-03-25T07:56:35.515Z,3.40
2018-03-25T07:59:02.457Z,3.40
2018-03-25T08:01:28.705Z,3.40
2018-03-25T08:03:55.704Z,3.60
2018-03-25T08:06:21.969Z,3.70
2018-03-25T08:08:48.940Z,4.00
2018-03-25T08:11:15.135Z,4.00
2018-03-25T08:13:42.124Z,4.20
2018-03-25T08:16:08.381Z,4.20
2018-03-25T08:18:34.761Z,4.30
2018-03-25T08:21:01.250Z,4.50
2018-03-25T08:23:27.570Z,4.60
2018-03-25T08:25:53.791Z,4.70
2018-03-25T08:28:20.132Z,4.90
2018-03-25T08:30:46.785Z,5.10
2018-03-25T08:33:12.968Z,5.30
2018-03-25T08:35:39.193Z,5.40
2018-03-25T08:38:05.417Z,5.60
2018-03-25T08:40:31.640Z,5.80
2018-03-25T08:42:58.104Z,6.00
2018-03-25T08:45:24.549Z,6.20
2018-03-25T08:47:50.859Z,6.40
2018-03-25T08:50:17.107Z,6.60
2018-03-25T08:52:43.466Z,6.80
2018-03-25T08:55:09.718Z,7.00
2018-03-25T08:57:36.022Z,7.20
2018-03-25T09:00:02.327Z,7.30
2018-03-25T09:02:29.332Z,7.60
2018-03-25T09:04:55.613Z,7.60
2018-03-25T09:07:22.596Z,7.70
2018-03-25T09:09:48.850Z,7.70
2018-03-25T09:12:15.965Z,7.80
2018-03-25T09:14:42.385Z,7.80
2018-03-25T09:17:08.688Z,7.90
2018-03-25T09:19:35.691Z,8.10
2018-03-25T09:22:02.336Z,8.10
2018-03-25T09:24:30.346Z,8.30
2018-03-25T09:26:56.732Z,8.30
2018-03-25T09:29:22.986Z,8.40
2018-03-25T09:31:49.255Z,8.50
2018-03-25T09:34:15.564Z,8.60
2018-03-25T09:36:41.800Z,8.60
2018-03-25T09:39:08.029Z,8.40
2018-03-25T09:41:35.223Z,8.40
2018-03-25T09:44:01.453Z,8.40
2018-03-25T09:46:27.671Z,8.50
2018-03-25T09:48:53.855Z,8.60
2018-03-25T09:51:20.257Z,8.70
2018-03-25T09:53:46.514Z,8.80
2018-03-25T09:56:12.789Z,8.70
2018-03-25T09:58:39.071Z,8.70
2018-03-25T10:01:12.280Z,8.80
2018-03-25T10:03:38.570Z,8.80
2018-03-25T10:06:05.589Z,8.70
2018-03-25T10:08:31.810Z,8.70
2018-03-25T10:10:59.672Z,8.90
2018-03-25T10:13:27.324Z,9.10
2018-03-25T10:15:53.616Z,9.10
2018-03-25T10:18:19.923Z,9.20
2018-03-25T10:20:46.948Z,9.30
2018-03-25T10:23:13.910Z,9.30
2018-03-25T10:25:41.022Z,9.40
2018-03-25T10:28:07.299Z,9.40
2018-03-25T10:30:33.554Z,9.40
2018-03-25T10:33:00.941Z,9.30
2018-03-25T10:35:27.219Z,9.20
2018-03-25T10:37:53.885Z,9.20
2018-03-25T10:40:21.072Z,9.40
2018-03-25T10:42:47.252Z,9.40
2018-03-25T10:45:13.483Z,9.40
2018-03-25T10:47:39.780Z,9.30
2018-03-25T10:50:06.744Z,9.40
2018-03-25T10:52:32.953Z,9.60
2018-03-25T10:54:59.227Z,9.70
2018-03-25T10:57:25.548Z,9.60
2018-03-25T10:59:51.836Z,9.60
2018-03-25T11:02:18.235Z,9.60
2018-03-25T11:04:45.977Z,9.50
2018-03-25T11:07:12.424Z,9.50
2018-03-25T11:09:39.504Z,9.50
2018-03-25T11:12:06.476Z,9.40
2018-03-25T11:14:32.977Z,9.40
2018-03-25T11:16:59.897Z,9.60
2018-03-25T11:19:26.168Z,9.50
2018-03-25T11:21:52.448Z,9.60
2018-03-25T11:24:18.756Z,9.50
2018-03-25T11:26:45.002Z,9.50
2018-03-25T11:29:11.325Z,9.40
2018-03-25T11:31:37.570Z,9.30
2018-03-25T11:34:03.825Z,9.30
2018-03-25T11:36:30.776Z,9.20
2018-03-25T11:38:57.005Z,9.20
2018-03-25T11:41:23.187Z,9.30
2018-03-25T11:43:49.432Z,9.50
2018-03-25T11:46:16.425Z,10.00
2018-03-25T11:48:42.669Z,10.00
2018-03-25T11:51:08.964Z,10.10
2018-03-25T11:53:35.393Z,10.00
2018-03-25T11:56:01.792Z,10.10
2018-03-25T11:58:28.068Z,10.20
2018-03-25T12:00:54.321Z,10.20
2018-03-25T12:03:20.623Z,10.10
2018-03-25T12:05:46.845Z,10.00
2018-03-25T12:08:13.069Z,10.00
2018-03-25T12:10:39.427Z,10.00
2018-03-25T12:13:05.897Z,10.00
2018-03-25T12:15:32.121Z,10.10
2018-03-25T12:17:58.722Z,10.10
2018-03-25T12:20:24.925Z,10.10
2018-03-25T12:22:51.213Z,9.90
2018-03-25T12:25:17.523Z,10.10
2018-03-25T12:27:43.787Z,10.10
2018-03-25T12:30:10.896Z,10.20
2018-03-25T12:32:37.739Z,10.20
2018-03-25T12:35:03.944Z,10.20
2018-03-25T12:37:31.593Z,10.40
2018-03-25T12:39:57.891Z,10.50
2018-03-25T12:42:24.894Z,10.50
2018-03-25T12:44:51.190Z,10.50
2018-03-25T12:47:17.624Z,10.60
2018-03-25T12:49:43.882Z,10.50
2018-03-25T12:52:10.096Z,10.40
2018-03-25T12:54:36.351Z,10.50
2018-03-25T12:57:02.749Z,10.50
2018-03-25T12:59:29.230Z,10.40
2018-03-25T13:01:56.038Z,10.40
2018-03-25T13:04:22.384Z,10.40
2018-03-25T13:06:49.118Z,10.50
2018-03-25T13:09:15.456Z,10.40
2018-03-25T13:11:43.308Z,10.30
2018-03-25T13:14:09.534Z,10.40
2018-03-25T13:16:35.792Z,10.30
2018-03-25T13:19:02.953Z,10.30
2018-03-25T13:21:29.208Z,10.30
2018-03-25T13:23:55.582Z,10.30
2018-03-25T13:26:21.855Z,10.30
2018-03-25T13:28:48.311Z,10.30
2018-03-25T13:31:14.606Z,10.30
2018-03-25T13:33:40.903Z,10.30
2018-03-25T13:36:14.070Z,10.30
2018-03-25T13:38:40.340Z,10.40
2018-03-25T13:41:07.471Z,10.30
2018-03-25T13:43:33.703Z,10.30
2018-03-25T13:46:00.700Z,10.30
2018-03-25T13:48:27.051Z,10.30
2018-03-25T13:50:53.491Z,10.30
2018-03-25T13:53:19.960Z,10.40
2018-03-25T13:55:46.934Z,10.50
2018-03-25T13:58:13.161Z,10.50
2018-03-25T14:00:39.624Z,10.50
2018-03-25T14:03:05.871Z,10.60
2018-03-25T14:05:33.729Z,10.60
2018-03-25T14:08:00.019Z,10.60
2018-03-25T14:10:26.284Z,10.60
2018-03-25T14:12:53.169Z,10.60
2018-03-25T14:15:20.384Z,10.70
2018-03-25T14:17:46.926Z,10.70
2018-03-25T14:20:13.171Z,10.70
2018-03-25T14:22:40.272Z,10.50
2018-03-25T14:25:06.494Z,10.50
2018-03-25T14:27:32.958Z,10.40
2018-03-25T14:29:59.295Z,10.30
2018-03-25T14:32:26.417Z,10.20
2018-03-25T14:34:52.601Z,10.20
2018-03-25T14:37:18.874Z,10.10
2018-03-25T14:39:45.915Z,10.00
2018-03-25T14:42:12.234Z,10.00
2018-03-25T14:44:38.620Z,10.10
2018-03-25T14:47:05.623Z,10.00
2018-03-25T14:49:31.952Z,10.00
2018-03-25T14:51:58.462Z,10.00
2018-03-25T14:54:24.735Z,10.00
2018-03-25T14:56:51.142Z,10.00
2018-03-25T14:59:17.428Z,10.00
2018-03-25T15:01:43.871Z,10.10
2018-03-25T15:04:10.322Z,10.20
2018-03-25T15:06:36.520Z,10.20
2018-03-25T15:09:03.620Z,10.00
2018-03-25T15:11:30.057Z,10.00
2018-03-25T15:13:56.580Z,10.00
2018-03-25T15:16:23.275Z,9.90
2018-03-25T15:18:49.662Z,9.90
2018-03-25T15:21:15.931Z,9.90
2018-03-25T15:23:42.157Z,9.90
2018-03-25T15:26:08.443Z,9.80
2018-03-25T15:28:34.650Z,9.70
2018-03-25T15:31:01.108Z,9.60
2018-03-25T15:33:28.249Z,9.60
2018-03-25T15:35:55.141Z,9.50
2018-03-25T15:38:21.405Z,9.50
2018-03-25T15:40:47.597Z,9.50
2018-03-25T15:43:13.918Z,9.50
2018-03-25T15:45:40.229Z,9.40
2018-03-25T15:48:06.577Z,9.30
2018-03-25T15:50:32.900Z,9.30
2018-03-25T15:52:59.254Z,9.30
2018-03-25T15:55:26.374Z,9.30
2018-03-25T15:57:53.481Z,9.20
2018-03-25T16:00:20.469Z,9.10
2018-03-25T16:02:47.999Z,9.00
2018-03-25T16:05:14.965Z,9.00
2018-03-25T16:07:42.123Z,8.90
2018-03-25T16:10:09.220Z,8.80
2018-03-25T16:12:35.384Z,8.80
2018-03-25T16:15:02.506Z,8.70
2018-03-25T16:17:28.908Z,8.70
2018-03-25T16:19:55.078Z,8.70
2018-03-25T16:22:21.385Z,8.60
2018-03-25T16:24:49.155Z,8.50
2018-03-25T16:27:15.425Z,8.50
2018-03-25T16:29:41.742Z,8.40
2018-03-25T16:32:08.846Z,8.30
2018-03-25T16:34:35.201Z,8.20
2018-03-25T16:37:02.248Z,8.00
2018-03-25T16:39:28.815Z,8.00
2018-03-25T16:41:55.115Z,7.90
2018-03-25T16:44:22.258Z,7.80
2018-03-25T16:46:48.547Z,7.80
2018-03-25T16:49:14.860Z,7.70
2018-03-25T16:51:41.190Z,7.70
2018-03-25T16:54:07.890Z,7.60
2018-03-25T16:56:34.870Z,7.60
2018-03-25T16:59:01.143Z,7.60
2018-03-25T17:01:27.350Z,7.60
2018-03-25T17:03:53.616Z,7.50
2018-03-25T17:06:19.940Z,7.30
2018-03-25T17:08:46.966Z,7.00
2018-03-25T17:11:13.208Z,7.00
2018-03-25T17:13:39.836Z,6.90
2018-03-25T17:16:06.053Z,6.70
2018-03-25T17:18:32.394Z,6.60
2018-03-25T17:20:59.391Z,6.30
2018-03-25T17:23:25.718Z,6.30
2018-03-25T17:25:52.048Z,6.20
2018-03-25T17:28:18.356Z,6.20
2018-03-25T17:30:45.419Z,6.00
2018-03-25T17:33:11.628Z,6.00
2018-03-25T17:35:38.641Z,5.70
2018-03-25T17:38:04.982Z,5.70
2018-03-25T17:40:32.169Z,5.50
2018-03-25T17:42:59.372Z,5.40
2018-03-25T17:45:25.604Z,5.40
2018-03-25T17:47:51.910Z,5.30
2018-03-25T17:50:18.216Z,5.20
2018-03-25T17:52:44.464Z,5.10
2018-03-25T17:55:10.770Z,5.00
2018-03-25T17:57:37.043Z,4.90
2018-03-25T18:00:03.256Z,4.80
2018-03-25T18:05:02.644Z,4.60
2018-03-25T18:07:28.914Z,4.50
2018-03-25T18:09:55.133Z,4.40
2018-03-25T18:12:21.440Z,4.30
2018-03-25T18:14:47.953Z,4.30
2018-03-25T18:17:33.465Z,4.20
2018-03-25T18:19:40.557Z,4.20
2018-03-25T18:22:06.793Z,4.20
2018-03-25T18:24:33.188Z,4.10
2018-03-25T18:27:00.117Z,4.10
2018-03-25T18:29:26.456Z,4.10
2018-03-25T18:31:52.824Z,4.00
2018-03-25T18:34:19.832Z,3.90
2018-03-25T18:36:46.055Z,3.90
2018-03-25T18:39:12.236Z,3.90
2018-03-25T18:41:38.513Z,3.90
2018-03-25T18:44:04.741Z,3.80
2018-03-25T18:46:30.991Z,3.80
2018-03-25T18:48:58.156Z,3.80
2018-03-25T18:51:24.401Z,3.80
2018-03-25T18:53:50.582Z,3.80
2018-03-25T18:56:16.994Z,3.70
2018-03-25T18:58:43.236Z,3.70
2018-03-25T19:01:09.529Z,3.80
2018-03-25T19:03:36.993Z,3.70
2018-03-25T19:06:03.398Z,3.70
2018-03-25T19:08:29.723Z,3.80
2018-03-25T19:10:56.054Z,3.80
2018-03-25T19:13:22.310Z,3.80
2018-03-25T19:15:48.680Z,3.80
2018-03-25T19:18:14.975Z,3.80
2018-03-25T19:20:41.462Z,3.80
2018-03-25T19:23:07.783Z,3.80
2018-03-25T19:25:33.944Z,3.80
2018-03-25T19:28:00.973Z,3.90
2018-03-25T19:30:27.322Z,3.80
2018-03-25T19:32:54.373Z,3.80
2018-03-25T19:35:21.420Z,3.80
2018-03-25T19:37:48.385Z,3.80
2018-03-25T19:40:14.694Z,3.80
2018-03-25T19:42:41.905Z,3.80
2018-03-25T19:45:08.212Z,3.70
2018-03-25T19:47:34.584Z,3.80
2018-03-25T19:50:01.706Z,3.80
2018-03-25T19:52:28.042Z,3.80
2018-03-25T19:54:54.311Z,3.90
2018-03-25T19:57:20.704Z,3.90
2018-03-25T19:59:47.079Z,4.00
2018-03-25T20:02:13.327Z,4.00
2018-03-25T20:04:39.617Z,4.00
2018-03-25T20:07:06.652Z,4.00
2018-03-25T20:09:32.905Z,3.90
2018-03-25T20:11:59.905Z,3.90
2018-03-25T20:14:26.288Z,3.90
2018-03-25T20:16:52.662Z,3.90
2018-03-25T20:19:18.943Z,3.80
2018-03-25T20:21:45.296Z,3.80
2018-03-25T20:24:11.954Z,3.80
2018-03-25T20:26:38.341Z,3.80
2018-03-25T20:29:04.640Z,3.70
2018-03-25T20:31:30.868Z,3.70
2018-03-25T20:33:57.509Z,3.80
2018-03-25T20:36:24.458Z,3.80
2018-03-25T20:38:51.526Z,3.70
2018-03-25T20:41:17.855Z,3.70
2018-03-25T20:43:44.153Z,3.70
2018-03-25T20:46:10.389Z,3.70
2018-03-25T20:48:37.453Z,3.60
2018-03-25T20:51:04.439Z,3.60
2018-03-25T20:53:30.672Z,3.60
2018-03-25T20:55:57.896Z,3.60
2018-03-25T20:58:24.253Z,3.60
2018-03-25T21:00:50.532Z,3.60
2018-03-25T21:03:16.973Z,3.60
2018-03-25T21:05:43.228Z,3.60
2018-03-25T21:08:09.497Z,3.60
2018-03-25T21:10:36.623Z,3.50
2018-03-25T21:13:03.005Z,3.50
2018-03-25T21:15:29.231Z,3.50
2018-03-25T21:17:55.482Z,3.50
2018-03-25T21:20:21.724Z,3.50
2018-03-25T21:22:47.991Z,3.50
2018-03-25T21:25:15.059Z,3.50
2018-03-25T21:27:41.249Z,3.40
2018-03-25T21:30:07.479Z,3.40
2018-03-25T21:32:33.760Z,3.40
2018-03-25T21:35:00.021Z,3.40
2018-03-25T21:37:27.009Z,3.40
2018-03-25T21:39:53.239Z,3.30
2018-03-25T21:42:19.490Z,3.30
2018-03-25T21:44:45.732Z,3.30
2018-03-25T21:47:11.900Z,3.40
2018-03-25T21:49:38.851Z,3.30
2018-03-25T21:52:05.844Z,3.30
2018-03-25T21:54:32.899Z,3.30
2018-03-25T21:56:59.162Z,3.30
2018-03-25T21:59:26.184Z,3.20
2018-03-25T22:01:52.450Z,3.20
2018-03-25T22:04:20.413Z,3.30
2018-03-25T22:06:47.472Z,3.30
2018-03-25T22:09:13.851Z,3.30
2018-03-25T22:11:40.143Z,3.30
2018-03-25T22:14:06.669Z,3.20
2018-03-25T22:16:33.948Z,3.20
2018-03-25T22:19:00.490Z,3.30
2018-03-25T22:21:26.731Z,3.30
2018-03-25T22:23:53.766Z,3.30
2018-03-25T22:26:20.020Z,3.20
2018-03-25T22:28:46.963Z,3.30
2018-03-25T22:31:13.385Z,3.30
2018-03-25T22:33:40.312Z,3.30
2018-03-25T22:36:06.643Z,3.30
2018-03-25T22:38:32.852Z,3.20
2018-03-25T22:40:59.084Z,3.20
2018-03-25T22:43:25.276Z,3.20
2018-03-25T22:45:51.404Z,3.20
2018-03-25T22:48:17.654Z,3.20
2018-03-25T22:50:43.884Z,3.20
2018-03-25T22:53:10.144Z,3.20
2018-03-25T22:55:36.348Z,3.10
2018-03-25T22:58:02.530Z,3.10
2018-03-25T23:00:28.795Z,3.10
2018-03-25T23:02:54.969Z,3.10
2018-03-25T23:05:21.948Z,3.10
2018-03-25T23:07:48.411Z,3.10
2018-03-25T23:10:14.741Z,3.10
2018-03-25T23:12:42.403Z,3.00
2018-03-25T23:15:09.854Z,3.00
2018-03-25T23:17:36.046Z,3.00
2018-03-25T23:20:02.349Z,3.00
2018-03-25T23:22:29.444Z,3.00
2018-03-25T23:24:55.653Z,3.00
2018-03-25T23:27:21.857Z,3.00
2018-03-25T23:29:48.033Z,3.00
2018-03-25T23:32:14.320Z,3.00
2018-03-25T23:34:40.580Z,3.00
2018-03-25T23:37:06.884Z,3.00
2018-03-25T23:39:33.097Z,2.90
2018-03-25T23:42:00.026Z,2.90
2018-03-25T23:44:26.982Z,2.80
2018-03-25T23:46:53.207Z,2.80
2018-03-25T23:49:20.178Z,2.90
2018-03-25T23:51:46.436Z,2.80
2018-03-25T23:54:12.706Z,2.90
2018-03-25T23:56:38.929Z,2.90
2018-03-25T23:59:05.949Z,2.80
